Time;durP1;ratioP1;P1;durP2;ratioP2;P2;SDS_P1;SDS_P2;PMS_P1;PMS_P2;Temp;Humidity;BMP_temperature;BMP_pressure;BME280_temperature;BME280_humidity;BME280_pressure;Samples;Min_cycle;Max_cycle;Signal;HPM_P1;HPM_P2
2023/08/25 00:00:15;;;;;;;17.98;9.15;;;20.10;99.90;;;;;;4998910;28;20101;-59
2023/08/25 00:02:41;;;;;;;19.90;9.98;;;20.00;99.90;;;;;;5019947;28;20121;-58
2023/08/25 00:05:06;;;;;;;21.05;8.73;;;20.10;99.90;;;;;;5021928;28;20026;-59
2023/08/25 00:07:32;;;;;;;16.02;8.77;;;20.00;99.90;;;;;;5022106;28;20443;-59
2023/08/25 00:09:58;;;;;;;13.77;7.93;;;20.10;99.90;;;;;;5022583;28;20029;-59
2023/08/25 00:12:24;;;;;;;15.68;7.93;;;20.10;99.90;;;;;;5021432;28;20084;-59
2023/08/25 00:14:49;;;;;;;14.90;7.57;;;20.00;99.90;;;;;;5022347;28;20049;-59
2023/08/25 00:17:15;;;;;;;12.32;7.22;;;20.00;99.90;;;;;;5020959;28;20059;-59
2023/08/25 00:19:40;;;;;;;15.40;7.07;;;20.00;99.90;;;;;;5023909;28;20041;-59
2023/08/25 00:22:06;;;;;;;16.20;6.72;;;19.90;99.90;;;;;;5026183;28;20037;-59
2023/08/25 00:24:34;;;;;;;18.95;7.35;;;20.00;99.90;;;;;;5025911;28;20117;-59
2023/08/25 00:27:00;;;;;;;11.82;7.03;;;20.10;99.90;;;;;;5023525;28;20047;-59
2023/08/25 00:29:26;;;;;;;18.85;7.38;;;20.20;99.90;;;;;;5024270;28;20030;-59
2023/08/25 00:31:51;;;;;;;12.45;7.38;;;20.10;99.90;;;;;;5023771;28;20080;-59
2023/08/25 00:34:17;;;;;;;14.95;6.75;;;20.10;99.90;;;;;;5026401;28;20037;-59
2023/08/25 00:36:43;;;;;;;11.18;6.68;;;20.00;99.90;;;;;;5029981;28;20369;-59
2023/08/25 00:39:08;;;;;;;10.73;6.55;;;19.90;99.90;;;;;;5025757;28;20048;-59
2023/08/25 00:41:34;;;;;;;15.15;6.93;;;19.80;99.90;;;;;;5028649;28;20064;-59
2023/08/25 00:44:01;;;;;;;15.35;6.82;;;19.80;99.90;;;;;;5026384;28;20475;-59
2023/08/25 00:46:26;;;;;;;14.02;7.00;;;19.80;99.90;;;;;;5023703;28;20208;-58
2023/08/25 00:48:52;;;;;;;16.00;7.53;;;19.60;99.90;;;;;;5028206;28;20052;-59
2023/08/25 00:51:19;;;;;;;14.15;7.38;;;19.60;99.90;;;;;;5021730;28;20041;-58
2023/08/25 00:53:46;;;;;;;13.38;6.75;;;19.80;99.90;;;;;;5020299;28;20033;-58
2023/08/25 00:56:13;;;;;;;15.65;6.95;;;19.60;99.90;;;;;;5025235;28;20121;-60
2023/08/25 00:58:39;;;;;;;10.50;6.30;;;19.60;99.90;;;;;;5025958;28;20049;-59
2023/08/25 01:01:05;;;;;;;11.43;6.18;;;19.60;99.90;;;;;;5018853;28;20125;-59
2023/08/25 01:03:31;;;;;;;13.85;6.65;;;19.50;99.90;;;;;;5024674;28;20128;-60
2023/08/25 01:05:57;;;;;;;14.05;5.85;;;19.50;99.90;;;;;;5021563;28;20053;-59
2023/08/25 01:08:24;;;;;;;10.82;5.90;;;19.40;99.90;;;;;;5024666;28;20041;-59
2023/08/25 01:10:57;;;;;;;10.70;6.30;;;19.50;99.90;;;;;;5021911;28;20038;-66
2023/08/25 01:13:46;;;;;;;12.10;6.38;;;19.50;99.90;;;;;;5021901;28;20038;-59
2023/08/25 01:16:17;;;;;;;13.57;6.32;;;19.40;99.90;;;;;;5022466;28;20033;-59
2023/08/25 01:18:44;;;;;;;12.18;6.47;;;19.40;99.90;;;;;;5025204;28;20075;-59
2023/08/25 01:21:11;;;;;;;13.30;6.25;;;19.30;99.90;;;;;;5024536;28;20025;-60
2023/08/25 01:23:56;;;;;;;15.32;6.70;;;19.40;99.90;;;;;;5015276;28;20034;-60
2023/08/25 01:26:22;;;;;;;13.57;6.60;;;19.30;99.90;;;;;;5023750;28;20183;-60
2023/08/25 01:28:51;;;;;;;13.25;6.90;;;19.30;99.90;;;;;;5025174;28;20044;-60
2023/08/25 01:31:19;;;;;;;14.20;7.00;;;19.30;99.90;;;;;;5024608;28;20167;-60
2023/08/25 01:33:46;;;;;;;11.32;6.68;;;19.30;99.90;;;;;;5011217;28;20400;-59
2023/08/25 01:36:28;;;;;;;17.17;7.30;;;19.30;99.90;;;;;;5023507;28;20124;-60
2023/08/25 01:39:07;;;;;;;17.73;7.55;;;19.30;99.90;;;;;;5025145;28;20109;-60
2023/08/25 01:41:44;;;;;;;15.65;7.82;;;19.30;99.90;;;;;;5022013;28;20040;-60
2023/08/25 01:44:13;;;;;;;14.45;7.05;;;19.30;99.90;;;;;;5024794;28;20116;-60
2023/08/25 01:46:42;;;;;;;15.60;7.60;;;19.30;99.90;;;;;;5024168;28;20034;-59
2023/08/25 01:49:10;;;;;;;13.65;7.70;;;19.20;99.90;;;;;;5023205;28;20033;-60
2023/08/25 01:51:36;;;;;;;12.70;7.07;;;19.10;99.90;;;;;;5004533;28;20255;-60
2023/08/25 01:54:01;;;;;;;21.20;8.02;;;19.20;99.90;;;;;;5024960;28;20029;-57
2023/08/25 01:56:27;;;;;;;14.25;8.30;;;19.30;99.90;;;;;;5022516;28;20049;-59
2023/08/25 01:58:52;;;;;;;12.65;7.97;;;19.30;99.90;;;;;;5017472;28;20052;-60
2023/08/25 02:01:18;;;;;;;15.70;8.60;;;19.20;99.90;;;;;;5021047;28;20038;-60
2023/08/25 02:03:44;;;;;;;13.73;7.45;;;19.20;99.90;;;;;;5019239;28;20406;-60
2023/08/25 02:06:10;;;;;;;15.52;7.75;;;19.10;99.90;;;;;;5023580;28;20479;-60
2023/08/25 02:08:35;;;;;;;12.15;7.20;;;19.10;99.90;;;;;;5021730;28;20029;-60
2023/08/25 02:11:01;;;;;;;16.60;8.30;;;19.00;99.90;;;;;;5025789;28;20465;-60
2023/08/25 02:13:27;;;;;;;14.98;8.30;;;19.00;99.90;;;;;;5023486;28;20620;-60
2023/08/25 02:15:53;;;;;;;13.68;7.72;;;19.10;99.90;;;;;;5022513;28;20268;-60
2023/08/25 02:18:19;;;;;;;15.52;8.15;;;19.00;99.90;;;;;;5024053;28;20068;-60
2023/08/25 02:20:44;;;;;;;14.48;7.40;;;18.90;99.90;;;;;;5023941;28;20025;-60
2023/08/25 02:23:10;;;;;;;15.30;8.60;;;18.90;99.90;;;;;;5023092;28;20040;-60
2023/08/25 02:25:36;;;;;;;15.57;8.30;;;18.90;99.90;;;;;;5019119;28;20908;-60
2023/08/25 02:28:02;;;;;;;16.58;8.85;;;18.90;99.90;;;;;;5029408;28;20025;-58
2023/08/25 02:30:28;;;;;;;16.40;7.97;;;18.90;99.90;;;;;;5022814;28;20034;-60
2023/08/25 02:32:55;;;;;;;13.93;8.18;;;18.90;99.90;;;;;;5019712;28;20036;-60
2023/08/25 02:35:21;;;;;;;17.75;8.18;;;18.70;99.90;;;;;;5022217;28;20396;-59
2023/08/25 02:38:00;;;;;;;11.65;7.22;;;18.70;99.90;;;;;;5023720;28;20029;-60
2023/08/25 02:40:27;;;;;;;14.07;7.63;;;18.70;99.90;;;;;;5024318;28;20033;-60
2023/08/25 02:42:54;;;;;;;15.23;8.43;;;18.60;99.90;;;;;;5022690;28;20445;-60
2023/08/25 02:45:23;;;;;;;13.85;7.38;;;18.60;99.90;;;;;;5024289;28;20037;-59
2023/08/25 02:47:49;;;;;;;11.68;7.25;;;18.80;99.90;;;;;;5028407;28;20506;-59
2023/08/25 02:50:14;;;;;;;15.13;7.55;;;18.70;99.90;;;;;;5022019;28;20037;-60
2023/08/25 02:52:40;;;;;;;14.13;7.90;;;18.60;99.90;;;;;;5013143;28;20406;-60
2023/08/25 02:55:06;;;;;;;15.10;8.27;;;18.60;99.90;;;;;;5022728;28;20362;-60
2023/08/25 02:57:31;;;;;;;14.25;8.32;;;18.60;99.90;;;;;;5021609;28;20393;-60
2023/08/25 02:59:57;;;;;;;13.98;7.53;;;18.50;99.90;;;;;;5023940;28;20421;-60
2023/08/25 03:02:22;;;;;;;12.10;7.60;;;18.50;99.90;;;;;;5022903;28;20048;-60
2023/08/25 03:04:48;;;;;;;14.07;8.57;;;18.60;99.90;;;;;;5016139;28;20115;-60
2023/08/25 03:07:13;;;;;;;17.75;8.32;;;18.70;99.90;;;;;;5022377;28;20112;-60
2023/08/25 03:09:39;;;;;;;15.93;8.65;;;18.70;99.90;;;;;;5023872;28;20043;-60
2023/08/25 03:12:05;;;;;;;12.55;7.88;;;18.80;99.90;;;;;;5022488;28;20029;-60
2023/08/25 03:14:30;;;;;;;13.55;7.93;;;18.70;99.90;;;;;;5015458;28;20029;-60
2023/08/25 03:16:56;;;;;;;17.92;7.88;;;18.70;99.90;;;;;;5023241;28;20342;-59
2023/08/25 03:19:21;;;;;;;14.82;8.27;;;18.60;99.90;;;;;;5023243;28;20128;-60
2023/08/25 03:21:47;;;;;;;13.45;7.07;;;18.60;99.90;;;;;;5004599;28;20030;-60
2023/08/25 03:24:13;;;;;;;14.23;7.72;;;18.40;99.90;;;;;;5021661;28;20580;-58
2023/08/25 03:26:38;;;;;;;13.88;7.40;;;18.40;99.90;;;;;;5022018;28;20420;-60
2023/08/25 03:29:04;;;;;;;19.00;8.10;;;18.30;99.90;;;;;;5023016;28;20064;-60
2023/08/25 03:31:30;;;;;;;14.07;6.88;;;18.30;99.90;;;;;;5022988;28;20029;-59
2023/08/25 03:33:55;;;;;;;11.23;7.35;;;18.30;99.90;;;;;;5023204;28;20064;-60
2023/08/25 03:36:21;;;;;;;17.30;8.05;;;18.30;99.90;;;;;;5021661;28;20534;-60
2023/08/25 03:38:46;;;;;;;16.85;7.85;;;18.40;99.90;;;;;;5021308;28;20037;-60
2023/08/25 03:41:12;;;;;;;15.30;7.75;;;18.20;99.90;;;;;;5020664;28;20045;-60
2023/08/25 03:43:37;;;;;;;17.92;8.35;;;18.20;99.90;;;;;;5022043;28;20378;-59
2023/08/25 03:46:03;;;;;;;12.90;7.18;;;18.30;99.90;;;;;;5023995;28;20040;-59
2023/08/25 03:48:29;;;;;;;12.18;7.32;;;18.10;99.90;;;;;;5021069;28;20098;-59
2023/08/25 03:50:55;;;;;;;15.27;7.53;;;18.10;99.90;;;;;;5016044;28;20034;-59
2023/08/25 03:53:20;;;;;;;15.68;8.25;;;18.30;99.90;;;;;;5029199;28;20273;-59
2023/08/25 03:55:46;;;;;;;13.45;7.82;;;18.20;99.90;;;;;;5025426;28;20064;-60
2023/08/25 03:58:13;;;;;;;14.65;7.80;;;18.20;99.90;;;;;;5016302;28;20036;-60
2023/08/25 04:00:39;;;;;;;14.13;7.63;;;18.20;99.90;;;;;;5023051;28;20508;-59
2023/08/25 04:03:06;;;;;;;14.45;7.47;;;18.20;99.90;;;;;;5022965;28;20362;-59
2023/08/25 04:05:32;;;;;;;17.40;8.30;;;18.20;99.90;;;;;;5026530;28;20040;-59
2023/08/25 04:07:57;;;;;;;13.13;7.40;;;18.10;99.90;;;;;;5026487;28;20037;-59
2023/08/25 04:10:23;;;;;;;13.48;7.60;;;18.20;99.90;;;;;;5029864;28;20045;-59
2023/08/25 04:12:49;;;;;;;16.00;8.05;;;18.20;99.90;;;;;;5015081;28;20033;-59
2023/08/25 04:15:15;;;;;;;15.07;7.97;;;18.30;99.90;;;;;;5028779;28;20174;-58
2023/08/25 04:17:40;;;;;;;14.10;7.35;;;18.30;99.90;;;;;;5005558;28;20310;-59
2023/08/25 04:20:06;;;;;;;10.27;7.90;;;18.20;99.90;;;;;;5025469;28;20048;-59
2023/08/25 04:22:32;;;;;;;11.50;7.85;;;18.10;99.90;;;;;;5026528;28;20036;-59
2023/08/25 04:24:57;;;;;;;15.93;8.70;;;18.00;99.90;;;;;;5025317;28;20567;-59
2023/08/25 04:27:23;;;;;;;11.55;8.23;;;17.90;99.90;;;;;;5028357;28;20112;-59
2023/08/25 04:29:51;;;;;;;14.50;7.90;;;17.80;99.90;;;;;;5018914;28;20025;-59
2023/08/25 04:32:17;;;;;;;15.55;7.93;;;18.00;99.90;;;;;;5025936;28;20549;-59
2023/08/25 04:34:42;;;;;;;15.30;8.07;;;18.00;99.90;;;;;;5029541;28;20117;-60
2023/08/25 04:37:08;;;;;;;14.55;7.65;;;18.00;99.90;;;;;;5025698;28;20046;-59
2023/08/25 04:39:33;;;;;;;15.02;7.97;;;17.90;99.90;;;;;;5025823;28;20377;-59
2023/08/25 04:41:59;;;;;;;12.38;7.53;;;17.90;99.90;;;;;;5016036;28;20711;-60
2023/08/25 04:44:24;;;;;;;13.10;7.25;;;17.90;99.90;;;;;;5001812;28;20042;-59
2023/08/25 04:46:50;;;;;;;12.27;7.63;;;17.70;99.90;;;;;;5022929;28;20283;-59
2023/08/25 04:49:15;;;;;;;11.75;6.95;;;17.80;99.90;;;;;;5021275;28;20088;-59
2023/08/25 04:51:42;;;;;;;11.25;7.22;;;17.80;99.90;;;;;;5018309;28;20121;-59
2023/08/25 04:54:07;;;;;;;15.60;7.95;;;17.80;99.90;;;;;;5027921;28;20029;-59
2023/08/25 04:56:33;;;;;;;12.68;7.80;;;18.00;99.90;;;;;;5023322;28;20068;-58
2023/08/25 04:58:58;;;;;;;13.43;7.43;;;17.90;99.90;;;;;;5034409;28;20037;-59
2023/08/25 05:01:24;;;;;;;11.68;7.28;;;17.90;99.90;;;;;;5024141;28;20042;-59
2023/08/25 05:03:50;;;;;;;15.13;7.05;;;17.90;99.90;;;;;;5019471;28;20120;-60
2023/08/25 05:06:15;;;;;;;14.05;7.20;;;17.90;99.90;;;;;;5024331;28;20033;-60
2023/08/25 05:08:41;;;;;;;13.85;7.30;;;17.90;99.90;;;;;;5018469;28;20132;-60
2023/08/25 05:11:07;;;;;;;18.65;10.48;;;17.90;99.90;;;;;;5027811;28;20022;-55
2023/08/25 05:13:32;;;;;;;13.55;9.43;;;18.00;99.90;;;;;;5023341;28;20110;-61
2023/08/25 05:15:58;;;;;;;14.50;8.75;;;18.10;99.90;;;;;;5035265;28;20411;-60
2023/08/25 05:18:24;;;;;;;14.70;9.40;;;18.00;99.90;;;;;;5022914;28;20026;-59
2023/08/25 05:20:50;;;;;;;12.45;7.68;;;17.90;99.90;;;;;;5023023;28;20177;-60
2023/08/25 05:23:16;;;;;;;15.38;8.90;;;17.90;99.90;;;;;;5022677;28;20520;-59
2023/08/25 05:25:41;;;;;;;13.82;7.65;;;18.00;99.90;;;;;;5012897;28;20088;-59
2023/08/25 05:28:07;;;;;;;14.32;8.18;;;18.00;99.90;;;;;;5015880;28;20669;-59
2023/08/25 05:30:32;;;;;;;15.13;7.85;;;18.00;99.90;;;;;;5024959;28;20038;-58
2023/08/25 05:32:58;;;;;;;18.65;9.63;;;18.10;99.90;;;;;;5026239;28;20440;-60
2023/08/25 05:35:23;;;;;;;21.98;10.52;;;18.10;99.90;;;;;;5024478;28;20451;-60
2023/08/25 05:37:50;;;;;;;16.05;9.48;;;18.10;99.90;;;;;;5019867;28;20448;-62
2023/08/25 05:40:16;;;;;;;21.23;11.30;;;18.20;99.90;;;;;;5015385;28;20033;-60
2023/08/25 05:42:42;;;;;;;20.90;12.20;;;18.20;99.90;;;;;;5019031;28;20500;-59
2023/08/25 05:45:08;;;;;;;25.40;14.00;;;18.30;99.90;;;;;;5022060;28;20021;-59
2023/08/25 05:47:34;;;;;;;21.92;12.98;;;18.40;99.90;;;;;;5021821;28;20776;-59
2023/08/25 05:49:59;;;;;;;25.02;14.02;;;18.40;99.90;;;;;;5020385;28;20121;-59
2023/08/25 05:52:25;;;;;;;19.30;13.15;;;18.50;99.90;;;;;;5021209;28;20041;-60
2023/08/25 05:54:50;;;;;;;23.17;13.80;;;18.50;99.90;;;;;;5012274;28;20036;-60
2023/08/25 05:57:16;;;;;;;26.52;16.58;;;18.60;99.90;;;;;;5020377;28;20076;-61
2023/08/25 05:59:42;;;;;;;25.85;15.68;;;18.70;99.90;;;;;;5016537;28;20145;-60
2023/08/25 06:02:07;;;;;;;22.30;14.65;;;18.80;99.90;;;;;;5014964;28;20087;-60
2023/08/25 06:04:33;;;;;;;26.05;16.55;;;18.80;99.90;;;;;;5022268;28;20113;-60
2023/08/25 06:06:58;;;;;;;29.67;16.00;;;19.00;99.90;;;;;;5022070;28;20133;-61
2023/08/25 06:09:24;;;;;;;33.65;17.45;;;19.10;99.90;;;;;;5020912;28;20136;-59
2023/08/25 06:11:50;;;;;;;29.05;16.88;;;19.10;99.90;;;;;;5019082;28;20084;-60
2023/08/25 06:14:16;;;;;;;29.48;18.58;;;19.20;99.90;;;;;;5014662;28;20511;-60
2023/08/25 06:16:42;;;;;;;30.02;18.52;;;19.40;99.90;;;;;;5022835;28;20107;-60
2023/08/25 06:19:08;;;;;;;28.20;17.38;;;19.40;99.90;;;;;;5018307;28;20029;-59
2023/08/25 06:21:33;;;;;;;29.13;16.52;;;19.60;99.90;;;;;;5022469;28;20057;-60
2023/08/25 06:23:59;;;;;;;26.08;16.42;;;19.60;99.90;;;;;;5023346;28;20423;-60
2023/08/25 06:26:25;;;;;;;30.95;16.30;;;19.60;99.90;;;;;;5015499;28;20154;-60
2023/08/25 06:28:52;;;;;;;27.58;15.40;;;19.60;99.90;;;;;;5020513;28;20033;-60
2023/08/25 06:31:18;;;;;;;32.30;16.27;;;19.70;99.90;;;;;;5016473;28;20033;-60
2023/08/25 06:33:44;;;;;;;26.77;15.07;;;19.80;99.90;;;;;;5020533;28;20178;-60
2023/08/25 06:36:10;;;;;;;22.83;12.88;;;19.90;99.90;;;;;;5024016;28;20702;-60
2023/08/25 06:38:36;;;;;;;27.42;14.18;;;20.00;99.90;;;;;;5024489;28;20030;-60
2023/08/25 06:41:03;;;;;;;25.15;13.77;;;20.20;99.90;;;;;;5016850;28;20523;-60
2023/08/25 06:43:29;;;;;;;26.25;13.90;;;20.30;99.90;;;;;;5024231;28;20052;-60
2023/08/25 06:45:54;;;;;;;22.40;12.40;;;20.20;99.90;;;;;;5020251;28;20137;-60
2023/08/25 06:48:21;;;;;;;20.73;12.13;;;20.20;99.90;;;;;;5021228;28;20412;-60
2023/08/25 06:50:47;;;;;;;19.88;11.90;;;20.10;99.90;;;;;;5019784;28;20049;-60
2023/08/25 06:53:13;;;;;;;19.92;11.85;;;20.30;99.90;;;;;;5013653;28;20055;-60
2023/08/25 06:55:38;;;;;;;20.40;11.02;;;20.30;99.90;;;;;;5031180;28;20337;-60
2023/08/25 06:58:06;;;;;;;22.10;13.15;;;20.10;99.90;;;;;;5028368;28;20113;-59
2023/08/25 07:00:32;;;;;;;26.55;17.08;;;20.10;99.90;;;;;;5017883;28;20402;-61
2023/08/25 07:02:58;;;;;;;24.20;14.60;;;20.00;99.90;;;;;;5026851;28;20121;-60
2023/08/25 07:05:24;;;;;;;18.15;10.85;;;20.00;99.90;;;;;;5026517;28;20116;-60
2023/08/25 07:07:51;;;;;;;16.80;10.48;;;19.90;99.90;;;;;;5030628;28;20144;-61
2023/08/25 07:10:17;;;;;;;23.35;10.02;;;19.90;99.90;;;;;;5011608;28;20505;-61
2023/08/25 07:12:43;;;;;;;21.35;10.07;;;19.90;99.90;;;;;;5031030;28;20116;-61
2023/08/25 07:15:09;;;;;;;16.33;9.57;;;19.80;99.90;;;;;;5027182;28;20686;-61
2023/08/25 07:17:35;;;;;;;18.52;9.52;;;19.80;99.90;;;;;;5025932;28;20044;-61
2023/08/25 07:20:01;;;;;;;20.58;10.27;;;20.00;99.90;;;;;;5020855;28;20041;-60
2023/08/25 07:22:26;;;;;;;20.38;9.88;;;19.80;99.90;;;;;;5019902;28;20121;-59
2023/08/25 07:24:55;;;;;;;19.98;10.52;;;19.80;99.90;;;;;;5028938;28;20063;-61
2023/08/25 07:27:21;;;;;;;20.30;11.18;;;19.70;99.90;;;;;;5025306;28;20046;-61
2023/08/25 07:29:46;;;;;;;17.25;10.00;;;19.80;99.90;;;;;;5027107;28;20342;-61
2023/08/25 07:32:12;;;;;;;18.88;11.23;;;19.90;99.90;;;;;;5025843;28;20401;-61
2023/08/25 07:34:38;;;;;;;22.17;12.10;;;19.90;99.90;;;;;;5028167;28;20039;-62
2023/08/25 07:37:03;;;;;;;23.60;12.45;;;20.00;99.90;;;;;;5027071;28;20095;-61
2023/08/25 07:39:29;;;;;;;25.23;13.82;;;20.00;99.90;;;;;;5026508;28;20037;-61
2023/08/25 07:41:55;;;;;;;25.00;13.48;;;20.10;99.90;;;;;;5025840;28;20041;-61
2023/08/25 07:44:21;;;;;;;21.45;12.10;;;20.20;99.90;;;;;;5022086;28;20333;-61
2023/08/25 07:46:46;;;;;;;22.25;12.25;;;20.10;99.90;;;;;;5029261;28;20497;-61
2023/08/25 07:49:12;;;;;;;17.33;11.48;;;19.90;99.90;;;;;;5026880;28;20470;-61
2023/08/25 07:51:38;;;;;;;21.05;11.77;;;19.70;99.90;;;;;;5021144;28;20068;-61
2023/08/25 07:54:05;;;;;;;22.23;12.00;;;19.60;99.90;;;;;;5014725;28;20237;-62
2023/08/25 07:56:30;;;;;;;20.98;12.82;;;19.60;99.90;;;;;;5018102;28;20779;-61
2023/08/25 07:58:56;;;;;;;24.17;12.18;;;19.60;99.90;;;;;;5018091;28;20124;-61
2023/08/25 08:01:22;;;;;;;20.02;11.98;;;19.70;99.90;;;;;;5019343;28;20400;-60
2023/08/25 08:03:47;;;;;;;21.85;11.70;;;19.80;99.90;;;;;;5010034;28;20043;-60
2023/08/25 08:06:13;;;;;;;23.08;11.80;;;19.60;99.90;;;;;;5016978;28;20041;-61
2023/08/25 08:08:39;;;;;;;21.80;11.90;;;19.50;99.90;;;;;;5022319;28;20037;-61
2023/08/25 08:11:04;;;;;;;18.38;11.82;;;19.60;99.90;;;;;;5016910;28;20132;-61
2023/08/25 08:13:30;;;;;;;20.75;12.18;;;19.60;99.90;;;;;;5019517;28;20072;-61
2023/08/25 08:15:56;;;;;;;20.60;12.27;;;19.40;99.90;;;;;;5021040;28;20064;-61
2023/08/25 08:18:22;;;;;;;17.98;11.80;;;19.50;99.90;;;;;;5015298;28;20054;-61
2023/08/25 08:20:48;;;;;;;17.58;11.93;;;19.50;99.90;;;;;;5018219;28;20069;-62
2023/08/25 08:23:14;;;;;;;19.27;11.23;;;19.50;99.90;;;;;;5019391;28;20513;-61
2023/08/25 08:25:40;;;;;;;22.05;11.27;;;19.50;99.90;;;;;;5018891;28;20461;-62
2023/08/25 08:28:08;;;;;;;19.65;11.70;;;19.50;99.90;;;;;;5017322;28;20030;-60
2023/08/25 08:30:34;;;;;;;19.85;12.50;;;19.40;99.90;;;;;;5021321;28;20401;-61
2023/08/25 08:32:59;;;;;;;22.40;12.18;;;19.60;99.90;;;;;;5021330;28;20033;-60
2023/08/25 08:35:25;;;;;;;24.20;12.07;;;19.60;99.90;;;;;;5021087;28;20044;-59
2023/08/25 08:37:51;;;;;;;27.92;13.55;;;19.50;99.90;;;;;;5017094;28;20040;-60
2023/08/25 08:40:16;;;;;;;21.90;12.73;;;19.50;99.90;;;;;;5020848;28;20152;-60
2023/08/25 08:42:45;;;;;;;19.40;12.52;;;19.60;99.90;;;;;;5025818;28;20047;-60
2023/08/25 08:45:11;;;;;;;23.23;12.18;;;19.70;99.90;;;;;;5020835;28;20048;-60
2023/08/25 08:47:37;;;;;;;27.05;13.65;;;19.70;99.90;;;;;;5023839;28;20436;-60
2023/08/25 08:50:06;;;;;;;18.60;11.30;;;19.80;99.90;;;;;;5025094;28;20314;-60
2023/08/25 08:52:32;;;;;;;24.70;13.43;;;19.90;99.90;;;;;;5020816;28;20355;-60
2023/08/25 08:54:59;;;;;;;26.27;13.98;;;19.80;99.90;;;;;;5021370;28;20540;-61
2023/08/25 08:57:28;;;;;;;28.27;14.23;;;19.50;99.90;;;;;;5023122;28;20033;-60
2023/08/25 08:59:58;;;;;;;26.58;14.65;;;19.60;99.90;;;;;;5018174;28;20103;-59
2023/08/25 09:02:27;;;;;;;31.77;15.65;;;19.80;99.90;;;;;;5020472;28;20046;-59
2023/08/25 09:04:53;;;;;;;26.80;15.52;;;19.80;99.90;;;;;;5024074;28;20037;-60
2023/08/25 09:07:20;;;;;;;27.30;15.38;;;19.70;99.90;;;;;;5014311;28;20164;-60
2023/08/25 09:09:46;;;;;;;27.52;15.80;;;19.50;99.90;;;;;;5015041;28;20054;-60
2023/08/25 09:12:15;;;;;;;25.95;15.75;;;19.50;99.90;;;;;;5021849;28;20033;-61
2023/08/25 09:14:41;;;;;;;31.63;15.88;;;19.50;99.90;;;;;;5015591;28;20516;-61
2023/08/25 09:17:07;;;;;;;28.20;15.90;;;19.50;99.90;;;;;;5018721;28;20068;-61
2023/08/25 09:19:33;;;;;;;27.52;15.75;;;19.50;99.90;;;;;;5019858;28;20048;-61
2023/08/25 09:22:00;;;;;;;25.13;14.93;;;19.50;99.90;;;;;;5017711;28;20037;-61
2023/08/25 09:24:25;;;;;;;23.23;13.38;;;19.60;99.90;;;;;;5022101;28;20033;-60
2023/08/25 09:26:51;;;;;;;18.15;11.43;;;19.30;99.90;;;;;;5026914;28;20198;-60
2023/08/25 09:29:17;;;;;;;14.02;9.27;;;19.20;99.90;;;;;;5022759;28;20408;-61
2023/08/25 09:31:44;;;;;;;14.68;7.57;;;19.20;99.90;;;;;;5023443;28;20167;-60
2023/08/25 09:34:13;;;;;;;20.63;8.95;;;19.20;99.90;;;;;;5017969;28;20337;-60
2023/08/25 09:36:54;;;;;;;29.23;9.73;;;19.10;99.90;;;;;;5021070;28;20058;-60
2023/08/25 09:39:20;;;;;;;19.40;9.57;;;19.20;99.90;;;;;;5022515;28;20382;-60
2023/08/25 09:41:47;;;;;;;15.95;9.43;;;19.40;99.90;;;;;;5024813;28;20041;-61
2023/08/25 09:44:13;;;;;;;24.50;10.50;;;19.20;99.90;;;;;;5022844;28;20036;-60
2023/08/25 09:46:38;;;;;;;16.38;8.20;;;19.00;99.90;;;;;;5021342;28;20095;-61
2023/08/25 09:49:07;;;;;;;16.02;8.35;;;18.90;99.90;;;;;;5000447;28;20042;-61
2023/08/25 09:51:41;;;;;;;18.38;8.52;;;19.00;99.90;;;;;;5018548;28;20037;-61
2023/08/25 09:54:12;;;;;;;17.95;10.05;;;19.10;99.90;;;;;;5010991;28;20380;-60
2023/08/25 09:56:40;;;;;;;18.92;9.45;;;19.20;99.90;;;;;;5019808;28;20041;-60
2023/08/25 09:59:06;;;;;;;13.60;7.85;;;19.00;99.90;;;;;;5021849;28;20033;-60
2023/08/25 10:01:34;;;;;;;14.27;8.27;;;19.00;99.90;;;;;;5022766;28;20037;-60
2023/08/25 10:04:02;;;;;;;16.08;9.77;;;19.10;99.90;;;;;;5018752;28;20037;-61
2023/08/25 10:06:33;;;;;;;21.05;8.60;;;19.20;99.90;;;;;;5020585;28;20132;-61
2023/08/25 10:08:59;;;;;;;14.63;7.20;;;19.10;99.90;;;;;;5022922;28;20711;-61
2023/08/25 10:11:42;;;;;;;19.65;7.90;;;19.00;99.90;;;;;;5018472;28;20045;-61
2023/08/25 10:14:10;;;;;;;15.80;6.55;;;19.10;99.90;;;;;;5008006;28;20475;-60
2023/08/25 10:16:50;;;;;;;17.63;7.38;;;19.20;99.90;;;;;;5017597;28;20041;-61
2023/08/25 10:19:26;;;;;;;16.65;6.85;;;19.10;99.90;;;;;;5019576;28;20025;-61
2023/08/25 10:21:54;;;;;;;12.95;5.88;;;19.20;99.90;;;;;;5016940;28;20084;-61
2023/08/25 10:24:21;;;;;;;11.48;5.50;;;19.00;99.90;;;;;;5009984;28;20048;-61
2023/08/25 10:26:51;;;;;;;12.63;5.30;;;19.00;99.90;;;;;;5016669;28;20041;-61
2023/08/25 10:29:20;;;;;;;9.55;4.82;;;19.10;99.90;;;;;;5021427;28;20386;-61
2023/08/25 10:31:51;;;;;;;10.38;5.43;;;19.10;99.90;;;;;;5021237;28;20065;-61
2023/08/25 10:34:34;;;;;;;13.93;5.43;;;19.20;99.90;;;;;;5019199;28;20041;-61
2023/08/25 10:37:06;;;;;;;10.35;5.40;;;19.20;99.90;;;;;;5008757;28;20053;-61
2023/08/25 10:39:55;;;;;;;10.63;5.13;;;19.20;99.90;;;;;;5005672;28;20045;-61
2023/08/25 10:42:27;;;;;;;12.20;5.40;;;19.20;99.90;;;;;;5004864;28;20496;-61
2023/08/25 10:44:54;;;;;;;9.50;5.32;;;19.10;99.90;;;;;;5015166;28;20141;-61
2023/08/25 10:47:22;;;;;;;14.73;5.70;;;19.10;99.90;;;;;;5017388;28;20378;-61
2023/08/25 10:49:55;;;;;;;9.75;5.65;;;19.20;99.90;;;;;;5015057;28;20041;-61
2023/08/25 10:52:22;;;;;;;11.55;6.13;;;19.20;99.90;;;;;;5020562;28;20033;-61
2023/08/25 10:54:51;;;;;;;8.70;5.93;;;19.20;99.90;;;;;;5020102;28;20037;-61
2023/08/25 10:57:21;;;;;;;12.68;6.55;;;19.30;99.90;;;;;;5018380;28;20160;-61
2023/08/25 10:59:52;;;;;;;11.30;6.50;;;19.30;99.90;;;;;;5021686;28;20041;-61
2023/08/25 11:02:38;;;;;;;14.48;7.32;;;19.30;99.90;;;;;;5019021;28;20342;-61
2023/08/25 11:05:28;;;;;;;16.50;7.50;;;19.40;99.90;;;;;;5019262;28;20029;-61
2023/08/25 11:07:55;;;;;;;15.88;7.95;;;19.30;99.90;;;;;;5004040;28;20383;-61
2023/08/25 11:10:24;;;;;;;14.20;8.65;;;19.40;99.90;;;;;;5017304;28;20072;-61
2023/08/25 11:12:53;;;;;;;12.30;8.00;;;19.50;99.90;;;;;;5021624;28;20067;-61
2023/08/25 11:15:21;;;;;;;14.15;8.25;;;19.50;99.90;;;;;;5016592;28;20780;-61
2023/08/25 11:17:48;;;;;;;14.73;7.75;;;19.50;99.90;;;;;;5019440;28;20111;-61
2023/08/25 11:20:15;;;;;;;15.43;7.70;;;19.60;99.90;;;;;;5014305;28;20290;-61
2023/08/25 11:22:55;;;;;;;12.10;6.80;;;19.50;99.90;;;;;;5013142;28;20501;-61
2023/08/25 11:25:21;;;;;;;13.38;7.43;;;19.60;99.90;;;;;;5019055;28;20034;-61
2023/08/25 11:27:53;;;;;;;12.05;6.78;;;19.60;99.90;;;;;;5012135;28;20045;-61
2023/08/25 11:30:20;;;;;;;16.30;7.40;;;19.50;99.90;;;;;;5007612;28;20037;-61
2023/08/25 11:32:49;;;;;;;0.00;0.00;;;19.70;99.90;;;;;;5017946;28;20038;-62
2023/08/25 11:35:16;;;;;;;12.25;6.63;;;19.70;99.90;;;;;;4998583;28;20030;-62
2023/08/25 11:37:44;;;;;;;15.13;10.32;;;19.70;99.90;;;;;;4998221;28;20389;-61
2023/08/25 11:40:12;;;;;;;15.30;10.77;;;19.90;99.90;;;;;;5005547;28;20034;-61
2023/08/25 11:42:39;;;;;;;20.15;12.25;;;19.90;99.90;;;;;;5011323;28;20064;-61
2023/08/25 11:45:08;;;;;;;18.45;12.43;;;20.00;99.90;;;;;;5016149;28;20042;-62
2023/08/25 11:47:34;;;;;;;22.50;14.18;;;20.20;99.90;;;;;;5000563;28;20044;-62
2023/08/25 11:50:00;;;;;;;27.30;16.35;;;20.30;99.90;;;;;;5012049;28;20041;-61
2023/08/25 11:52:26;;;;;;;33.67;18.23;;;20.40;99.90;;;;;;5015495;28;20128;-61
2023/08/25 11:54:51;;;;;;;28.02;19.70;;;20.60;99.90;;;;;;5017062;28;20128;-61
2023/08/25 11:57:18;;;;;;;33.15;19.55;;;20.70;99.90;;;;;;5014346;28;20091;-60
2023/08/25 11:59:49;;;;;;;29.17;20.65;;;20.90;99.90;;;;;;5014367;28;20033;-61
2023/08/25 12:02:19;;;;;;;28.65;19.02;;;21.00;99.90;;;;;;5018975;28;20044;-61
2023/08/25 12:04:54;;;;;;;32.58;18.73;;;21.00;99.90;;;;;;5008931;28;20029;-60
2023/08/25 12:07:28;;;;;;;25.83;16.55;;;21.10;99.90;;;;;;5013354;28;20068;-60
2023/08/25 12:09:55;;;;;;;24.65;15.23;;;21.20;99.90;;;;;;5008649;28;20077;-60
2023/08/25 12:12:21;;;;;;;19.75;14.52;;;21.20;99.90;;;;;;5006187;28;20037;-61
2023/08/25 12:14:50;;;;;;;19.85;14.07;;;21.20;99.90;;;;;;5013396;28;20121;-60
2023/08/25 12:17:29;;;;;;;17.88;11.15;;;21.30;99.90;;;;;;5016112;28;20042;-60
2023/08/25 12:19:56;;;;;;;15.15;9.48;;;21.30;99.90;;;;;;5019545;28;20414;-59
2023/08/25 12:22:22;;;;;;;13.75;8.23;;;21.10;99.90;;;;;;5020305;28;20087;-61
2023/08/25 12:24:48;;;;;;;10.98;6.40;;;21.10;99.90;;;;;;5014697;28;20045;-62
2023/08/25 12:27:15;;;;;;;11.30;6.85;;;21.00;99.90;;;;;;5021139;28;20468;-62
2023/08/25 12:29:41;;;;;;;12.40;7.47;;;21.00;99.90;;;;;;5011270;28;20034;-62
2023/08/25 12:32:09;;;;;;;12.48;6.68;;;21.20;99.90;;;;;;5017871;28;20060;-62